Time;durP1;ratioP1;P1;durP2;ratioP2;P2;SDS_P1;SDS_P2;PMS_P1;PMS_P2;Temp;Humidity;BMP_temperature;BMP_pressure;BME280_temperature;BME280_humidity;BME280_pressure;Samples;Min_cycle;Max_cycle;Signal;HPM_P1;HPM_P2
2022/08/27 00:03:02;;;;;;;16.35;10.25;;;;;;;;;;5034054;28;20056;-70
2022/08/27 00:06:07;;;;;;;18.20;11.10;;;;;;;;;;5034998;28;20052;-70
2022/08/27 00:09:11;;;;;;;21.88;10.70;;;;;;;;;;5033767;28;20291;-70
2022/08/27 00:12:16;;;;;;;17.27;10.25;;;;;;;;;;5022209;28;20405;-70
2022/08/27 00:15:21;;;;;;;17.88;9.25;;;;;;;;;;5034138;28;20409;-70
2022/08/27 00:18:25;;;;;;;18.65;9.85;;;;;;;;;;5034481;28;20044;-70
2022/08/27 00:21:31;;;;;;;16.27;9.57;;;;;;;;;;5034178;28;20048;-70
2022/08/27 00:24:36;;;;;;;21.13;9.80;;;;;;;;;;5033894;28;20052;-70
2022/08/27 00:27:40;;;;;;;21.77;9.75;;;;;;;;;;5034311;28;20049;-70
2022/08/27 00:30:45;;;;;;;13.85;8.77;;;;;;;;;;5033280;28;20064;-70
2022/08/27 00:33:50;;;;;;;18.23;9.80;;;;;;;;;;5033246;28;20473;-70
2022/08/27 00:36:54;;;;;;;16.80;9.68;;;;;;;;;;5033832;28;20060;-70
2022/08/27 00:39:58;;;;;;;16.55;9.95;;;;;;;;;;5033795;28;20044;-70
2022/08/27 00:43:03;;;;;;;17.70;9.43;;;;;;;;;;5034001;28;20405;-71
2022/08/27 00:46:10;;;;;;;16.23;9.82;;;;;;;;;;5033643;28;20536;-70
2022/08/27 00:49:24;;;;;;;19.23;9.82;;;;;;;;;;5033781;28;20045;-70
2022/08/27 00:52:30;;;;;;;17.67;9.38;;;;;;;;;;5033931;28;20052;-70
2022/08/27 00:55:38;;;;;;;15.27;9.50;;;;;;;;;;5034308;28;20064;-70
2022/08/27 00:58:44;;;;;;;17.63;9.68;;;;;;;;;;5033587;28;20056;-70
2022/08/27 01:05:24;;;;;;;20.45;10.00;;;;;;;;;;5032532;28;20208;-70
2022/08/27 01:08:33;;;;;;;17.73;10.00;;;;;;;;;;5033354;28;20405;-70
2022/08/27 01:11:38;;;;;;;14.63;9.85;;;;;;;;;;5033198;28;20405;-70
2022/08/27 01:14:43;;;;;;;24.35;10.65;;;;;;;;;;5033013;28;20045;-70
2022/08/27 01:17:48;;;;;;;18.60;11.10;;;;;;;;;;5033534;28;20044;-70
2022/08/27 01:21:01;;;;;;;21.17;10.52;;;;;;;;;;5033375;28;20381;-70
2022/08/27 01:24:13;;;;;;;16.65;9.80;;;;;;;;;;5020938;28;20160;-70
2022/08/27 01:27:20;;;;;;;17.73;10.50;;;;;;;;;;5033235;28;20041;-70
2022/08/27 01:30:25;;;;;;;16.95;9.85;;;;;;;;;;5033076;28;20048;-70
2022/08/27 01:33:30;;;;;;;29.02;10.70;;;;;;;;;;5032179;28;20044;-71
2022/08/27 01:36:34;;;;;;;17.27;10.55;;;;;;;;;;5032931;28;20508;-70
2022/08/27 01:39:39;;;;;;;18.77;10.80;;;;;;;;;;5032244;28;20060;-70
2022/08/27 01:42:44;;;;;;;16.27;10.38;;;;;;;;;;5032431;28;20051;-70
2022/08/27 01:45:50;;;;;;;19.02;10.32;;;;;;;;;;5032544;28;20052;-70
2022/08/27 01:48:55;;;;;;;22.15;11.65;;;;;;;;;;5032616;28;20044;-70
2022/08/27 01:52:00;;;;;;;20.05;11.73;;;;;;;;;;5032834;28;20048;-70
2022/08/27 01:55:06;;;;;;;20.05;12.70;;;;;;;;;;5032382;28;20057;-71
2022/08/27 01:58:11;;;;;;;25.50;12.05;;;;;;;;;;5032438;28;20055;-70
2022/08/27 02:01:15;;;;;;;21.27;12.90;;;;;;;;;;5032367;28;20044;-70
2022/08/27 02:04:20;;;;;;;23.30;12.85;;;;;;;;;;5032036;28;20056;-70
2022/08/27 02:07:24;;;;;;;20.60;12.82;;;;;;;;;;5032108;28;20040;-70
2022/08/27 02:10:31;;;;;;;25.65;12.38;;;;;;;;;;5031440;28;20048;-70
2022/08/27 02:13:36;;;;;;;22.00;12.73;;;;;;;;;;5031382;28;20401;-70
2022/08/27 02:16:41;;;;;;;23.70;12.00;;;;;;;;;;5031395;28;20061;-70
2022/08/27 02:19:46;;;;;;;22.77;11.95;;;;;;;;;;5032254;28;20052;-70
2022/08/27 02:22:50;;;;;;;23.83;11.65;;;;;;;;;;5031903;28;20544;-71
2022/08/27 02:25:55;;;;;;;18.00;11.90;;;;;;;;;;5030113;28;20052;-71
2022/08/27 02:28:59;;;;;;;15.10;11.23;;;;;;;;;;5031796;28;20044;-71
2022/08/27 02:32:04;;;;;;;19.65;11.45;;;;;;;;;;5031210;28;20044;-71
2022/08/27 02:35:08;;;;;;;22.45;11.50;;;;;;;;;;5031840;28;20040;-71
2022/08/27 02:38:13;;;;;;;20.20;11.07;;;;;;;;;;5031130;28;20052;-71
2022/08/27 02:41:18;;;;;;;17.08;10.55;;;;;;;;;;5031594;28;20040;-71
2022/08/27 02:44:22;;;;;;;22.25;10.65;;;;;;;;;;5031602;28;20409;-71
2022/08/27 02:47:28;;;;;;;17.42;10.93;;;;;;;;;;5031787;28;20411;-70
2022/08/27 02:50:33;;;;;;;19.20;10.00;;;;;;;;;;5031657;28;20068;-71
2022/08/27 02:53:38;;;;;;;18.73;10.65;;;;;;;;;;5031557;28;20109;-71
2022/08/27 02:56:42;;;;;;;17.45;10.05;;;;;;;;;;5031393;28;20044;-71
2022/08/27 02:59:47;;;;;;;18.00;10.32;;;;;;;;;;5032524;28;20052;-70
2022/08/27 03:02:52;;;;;;;15.35;9.77;;;;;;;;;;5031474;28;20079;-71
2022/08/27 03:05:57;;;;;;;16.80;9.93;;;;;;;;;;5030384;28;20057;-71
2022/08/27 03:09:02;;;;;;;14.15;9.95;;;;;;;;;;5031216;28;20056;-71
2022/08/27 03:12:06;;;;;;;14.00;10.05;;;;;;;;;;5031122;28;20405;-71
2022/08/27 03:15:12;;;;;;;14.38;9.75;;;;;;;;;;5030261;28;20504;-70
2022/08/27 03:18:17;;;;;;;20.67;10.43;;;;;;;;;;5030568;28;20053;-70
2022/08/27 03:21:23;;;;;;;18.63;11.02;;;;;;;;;;5030297;28;20044;-70
2022/08/27 03:24:27;;;;;;;17.50;10.55;;;;;;;;;;5029815;28;20052;-70
2022/08/27 03:27:32;;;;;;;15.60;11.43;;;;;;;;;;5030223;28;20048;-71
2022/08/27 03:30:37;;;;;;;15.90;11.88;;;;;;;;;;5031219;28;20064;-71
2022/08/27 03:33:44;;;;;;;21.67;11.35;;;;;;;;;;5030879;28;20048;-70
2022/08/27 03:36:50;;;;;;;17.00;11.38;;;;;;;;;;5030156;28;20044;-71
2022/08/27 03:39:54;;;;;;;17.80;11.20;;;;;;;;;;5030351;28;20496;-72
2022/08/27 03:42:59;;;;;;;15.95;11.02;;;;;;;;;;5029996;28;20056;-71
2022/08/27 03:46:04;;;;;;;15.82;10.88;;;;;;;;;;5030702;28;20060;-71
2022/08/27 03:49:08;;;;;;;20.83;10.40;;;;;;;;;;5030870;28;20040;-71
2022/08/27 03:52:13;;;;;;;18.90;11.43;;;;;;;;;;5030822;28;20053;-72
2022/08/27 03:55:17;;;;;;;19.15;10.88;;;;;;;;;;5030921;28;20048;-72
2022/08/27 03:58:22;;;;;;;16.30;10.95;;;;;;;;;;5030846;28;20064;-72
2022/08/27 04:01:28;;;;;;;16.45;12.10;;;;;;;;;;5030029;28;20045;-71
2022/08/27 04:04:33;;;;;;;20.77;11.48;;;;;;;;;;5030358;28;20412;-72
2022/08/27 04:07:38;;;;;;;19.40;10.90;;;;;;;;;;5030009;28;20508;-71
2022/08/27 04:10:42;;;;;;;15.52;10.25;;;;;;;;;;5030758;28;20049;-71
2022/08/27 04:13:47;;;;;;;14.30;10.35;;;;;;;;;;5030815;28;20048;-72
2022/08/27 04:16:53;;;;;;;13.43;10.15;;;;;;;;;;5029575;28;20508;-72
2022/08/27 04:20:01;;;;;;;14.77;9.68;;;;;;;;;;5030509;28;20052;-72
2022/08/27 04:23:05;;;;;;;18.75;9.93;;;;;;;;;;5030738;28;20512;-72
2022/08/27 04:26:10;;;;;;;17.75;9.75;;;;;;;;;;5030089;28;20053;-72
2022/08/27 04:29:15;;;;;;;19.65;11.07;;;;;;;;;;5030629;28;20041;-72
2022/08/27 04:32:20;;;;;;;18.08;11.05;;;;;;;;;;5029572;28;20060;-72
2022/08/27 04:35:24;;;;;;;17.23;12.65;;;;;;;;;;5030267;28;20044;-72
2022/08/27 04:38:28;;;;;;;18.95;11.75;;;;;;;;;;5030375;28;20049;-71
2022/08/27 04:41:33;;;;;;;17.48;11.68;;;;;;;;;;5029662;28;20056;-70
2022/08/27 04:44:37;;;;;;;20.48;11.98;;;;;;;;;;5029936;28;20048;-71
2022/08/27 04:47:41;;;;;;;19.50;12.00;;;;;;;;;;5031261;28;20052;-71
2022/08/27 04:50:46;;;;;;;15.05;10.85;;;;;;;;;;5033629;28;20397;-71
2022/08/27 04:53:51;;;;;;;18.05;12.65;;;;;;;;;;5033825;28;20579;-71
2022/08/27 04:56:55;;;;;;;16.67;11.75;;;;;;;;;;5033806;28;20147;-71
2022/08/27 04:59:59;;;;;;;23.20;13.10;;;;;;;;;;5034053;28;20052;-70
2022/08/27 05:03:04;;;;;;;23.92;12.73;;;;;;;;;;5033567;28;20068;-71
2022/08/27 05:06:08;;;;;;;19.42;13.05;;;;;;;;;;5033486;28;20077;-71
2022/08/27 05:09:13;;;;;;;17.25;11.70;;;;;;;;;;5033666;28;20056;-71
2022/08/27 05:12:17;;;;;;;20.95;10.98;;;;;;;;;;5033639;28;20060;-71
2022/08/27 05:15:22;;;;;;;15.65;11.10;;;;;;;;;;5009988;28;20052;-71
2022/08/27 05:18:27;;;;;;;20.27;11.93;;;;;;;;;;5033554;28;20048;-71
2022/08/27 05:21:33;;;;;;;14.32;10.10;;;;;;;;;;5021186;28;20516;-70
2022/08/27 05:24:37;;;;;;;18.80;10.65;;;;;;;;;;5020410;28;20064;-71
2022/08/27 05:27:41;;;;;;;20.75;10.50;;;;;;;;;;5033553;28;20064;-71
2022/08/27 05:30:46;;;;;;;15.20;9.05;;;;;;;;;;5032828;28;20052;-71
2022/08/27 05:33:51;;;;;;;18.38;9.77;;;;;;;;;;5032630;28;20044;-71
2022/08/27 05:36:55;;;;;;;18.15;9.95;;;;;;;;;;5032657;28;20409;-75
2022/08/27 05:40:00;;;;;;;12.55;9.25;;;;;;;;;;5020618;28;20036;-74
2022/08/27 05:43:04;;;;;;;12.27;8.65;;;;;;;;;;5031920;28;20420;-74
2022/08/27 05:46:10;;;;;;;17.35;9.45;;;;;;;;;;5031844;28;20252;-73
2022/08/27 05:49:15;;;;;;;15.63;8.63;;;;;;;;;;5032486;28;20051;-72
2022/08/27 05:52:20;;;;;;;19.48;8.60;;;;;;;;;;5020519;28;20056;-72
2022/08/27 05:55:25;;;;;;;14.57;9.25;;;;;;;;;;5030893;28;20044;-73
2022/08/27 06:01:54;;;;;;;17.55;9.48;;;;;;;;;;5032290;28;20052;-72
2022/08/27 06:04:58;;;;;;;17.35;9.05;;;;;;;;;;5032368;28;20397;-73
2022/08/27 06:08:05;;;;;;;14.52;9.57;;;;;;;;;;5032506;28;20048;-72
2022/08/27 06:11:10;;;;;;;15.38;9.50;;;;;;;;;;5032347;28;20045;-73
2022/08/27 06:14:15;;;;;;;20.05;9.27;;;;;;;;;;5031466;28;20056;-73
2022/08/27 06:17:19;;;;;;;15.52;8.65;;;;;;;;;;5031718;28;20048;-72
2022/08/27 06:20:24;;;;;;;21.65;9.82;;;;;;;;;;5031613;28;20054;-73
2022/08/27 06:23:28;;;;;;;14.75;8.95;;;;;;;;;;5032081;28;20053;-72
2022/08/27 06:26:32;;;;;;;16.63;9.02;;;;;;;;;;5031863;28;20072;-72
2022/08/27 06:29:37;;;;;;;13.85;8.25;;;;;;;;;;5031548;28;20044;-72
2022/08/27 06:32:41;;;;;;;15.43;8.57;;;;;;;;;;5032045;28;20052;-73
2022/08/27 06:35:46;;;;;;;17.38;10.00;;;;;;;;;;5031853;28;20040;-70
2022/08/27 06:38:51;;;;;;;13.73;7.82;;;;;;;;;;5031591;28;20048;-70
2022/08/27 06:41:56;;;;;;;17.40;8.18;;;;;;;;;;5029090;28;20124;-70
2022/08/27 06:45:00;;;;;;;10.00;7.32;;;;;;;;;;5030485;28;20056;-72
2022/08/27 06:48:04;;;;;;;12.70;6.72;;;;;;;;;;5031327;28;20041;-71
2022/08/27 06:51:11;;;;;;;8.90;6.95;;;;;;;;;;5031428;28;20053;-70
2022/08/27 06:54:16;;;;;;;16.25;6.97;;;;;;;;;;5028582;28;20033;-72
2022/08/27 06:57:20;;;;;;;8.20;6.50;;;;;;;;;;5029727;28;20547;-72
2022/08/27 07:00:25;;;;;;;12.32;5.70;;;;;;;;;;5031224;28;20037;-72
2022/08/27 07:03:29;;;;;;;8.68;5.53;;;;;;;;;;5030878;28;20045;-72
2022/08/27 07:06:34;;;;;;;9.98;4.53;;;;;;;;;;5031136;28;20075;-72
2022/08/27 07:09:39;;;;;;;8.30;5.47;;;;;;;;;;5030079;28;20383;-72
2022/08/27 07:12:43;;;;;;;7.82;5.28;;;;;;;;;;5029124;28;20049;-72
2022/08/27 07:15:48;;;;;;;11.15;5.10;;;;;;;;;;5028983;28;20042;-72
2022/08/27 07:18:53;;;;;;;8.13;5.15;;;;;;;;;;5028968;28;20052;-69
2022/08/27 07:21:58;;;;;;;10.45;4.82;;;;;;;;;;5029532;28;20034;-71
2022/08/27 07:25:03;;;;;;;5.57;4.63;;;;;;;;;;5029771;28;20052;-69
2022/08/27 07:28:08;;;;;;;8.88;4.68;;;;;;;;;;5030454;28;20038;-68
2022/08/27 07:31:15;;;;;;;7.05;4.40;;;;;;;;;;5031037;28;20374;-68
2022/08/27 07:34:20;;;;;;;9.65;4.93;;;;;;;;;;5030676;28;20038;-68
2022/08/27 07:37:24;;;;;;;5.95;3.95;;;;;;;;;;5030909;28;20065;-68
2022/08/27 07:40:28;;;;;;;7.88;4.55;;;;;;;;;;5030741;28;20050;-69
2022/08/27 07:46:57;;;;;;;10.35;4.20;;;;;;;;;;5030572;28;20046;-69
2022/08/27 07:50:02;;;;;;;10.52;4.10;;;;;;;;;;5030741;28;20044;-69
2022/08/27 07:53:07;;;;;;;7.68;4.78;;;;;;;;;;5030773;28;20504;-69
2022/08/27 07:56:11;;;;;;;34.03;6.07;;;;;;;;;;5029555;28;20038;-69
2022/08/27 07:59:16;;;;;;;6.88;4.35;;;;;;;;;;5030332;28;20048;-73
2022/08/27 08:02:20;;;;;;;5.60;4.00;;;;;;;;;;5029866;28;20033;-69
2022/08/27 08:05:25;;;;;;;6.30;4.80;;;;;;;;;;5030150;28;20489;-69
2022/08/27 08:08:29;;;;;;;13.27;4.65;;;;;;;;;;5029976;28;20029;-69
2022/08/27 08:11:33;;;;;;;8.07;4.60;;;;;;;;;;5030534;28;20040;-70
2022/08/27 08:14:38;;;;;;;8.45;4.50;;;;;;;;;;5030503;28;20041;-71
2022/08/27 08:17:42;;;;;;;9.15;4.80;;;;;;;;;;5029384;28;20529;-71
2022/08/27 08:20:46;;;;;;;10.65;4.40;;;;;;;;;;5030755;28;20038;-70
2022/08/27 08:23:51;;;;;;;6.28;4.10;;;;;;;;;;5033340;28;20048;-70
2022/08/27 08:26:55;;;;;;;8.75;4.35;;;;;;;;;;5034149;28;20049;-72
2022/08/27 08:29:59;;;;;;;13.10;4.80;;;;;;;;;;5033780;28;20034;-71
2022/08/27 08:33:04;;;;;;;14.93;5.10;;;;;;;;;;5033823;28;20500;-69
2022/08/27 08:36:10;;;;;;;5.15;3.90;;;;;;;;;;5033994;28;20227;-71
2022/08/27 08:39:18;;;;;;;8.35;4.93;;;;;;;;;;5033844;28;20038;-69
2022/08/27 08:42:29;;;;;;;9.38;4.93;;;;;;;;;;5033631;28;20038;-69
2022/08/27 08:45:36;;;;;;;10.73;4.90;;;;;;;;;;5033521;28;20505;-70
2022/08/27 08:48:42;;;;;;;6.25;4.53;;;;;;;;;;5033949;28;20056;-70
2022/08/27 08:51:46;;;;;;;16.60;5.22;;;;;;;;;;5033439;28;20041;-68
2022/08/27 08:54:51;;;;;;;5.60;4.55;;;;;;;;;;5032437;28;20049;-66
2022/08/27 08:58:07;;;;;;;9.25;5.13;;;;;;;;;;5033327;28;20034;-65
2022/08/27 09:01:13;;;;;;;5.32;4.50;;;;;;;;;;5033284;28;20038;-67
2022/08/27 09:04:17;;;;;;;6.50;4.45;;;;;;;;;;5033210;28;20037;-68
2022/08/27 09:07:48;;;;;;;6.90;4.50;;;;;;;;;;5033173;28;20037;-69
2022/08/27 09:11:16;;;;;;;7.07;4.78;;;;;;;;;;5026195;28;20034;-67
2022/08/27 09:14:29;;;;;;;6.43;5.10;;;;;;;;;;5032733;28;20187;-68
2022/08/27 09:17:34;;;;;;;6.90;4.80;;;;;;;;;;5033294;28;20046;-69
2022/08/27 09:20:40;;;;;;;7.95;5.25;;;;;;;;;;5032880;28;20042;-69
2022/08/27 09:23:56;;;;;;;8.43;4.75;;;;;;;;;;5032927;28;20482;-68
2022/08/27 09:27:00;;;;;;;7.60;5.15;;;;;;;;;;5032737;28;20045;-67
2022/08/27 09:30:07;;;;;;;7.97;5.20;;;;;;;;;;5032673;28;20055;-67
2022/08/27 09:33:12;;;;;;;9.23;5.65;;;;;;;;;;5032095;28;20045;-70
2022/08/27 09:36:18;;;;;;;7.05;4.90;;;;;;;;;;5032743;28;20038;-70
2022/08/27 09:39:28;;;;;;;7.82;4.93;;;;;;;;;;5032539;28;20042;-69
2022/08/27 09:42:38;;;;;;;8.85;4.85;;;;;;;;;;5032625;28;20338;-70
2022/08/27 09:45:47;;;;;;;6.85;5.45;;;;;;;;;;5032361;28;20045;-70
2022/08/27 09:48:51;;;;;;;12.57;4.90;;;;;;;;;;5032628;28;20033;-70
2022/08/27 09:51:56;;;;;;;7.05;4.68;;;;;;;;;;5032532;28;20396;-70
2022/08/27 09:55:01;;;;;;;7.88;4.50;;;;;;;;;;5031675;28;20041;-70
2022/08/27 09:58:07;;;;;;;4.78;4.18;;;;;;;;;;5032377;28;20029;-70
2022/08/27 10:01:18;;;;;;;7.60;4.45;;;;;;;;;;5032377;28;20071;-70
2022/08/27 10:04:37;;;;;;;5.82;4.40;;;;;;;;;;5032425;28;20033;-70
2022/08/27 10:07:52;;;;;;;4.60;4.20;;;;;;;;;;5032498;28;20049;-70
2022/08/27 10:11:15;;;;;;;7.75;4.70;;;;;;;;;;5032082;28;20037;-70
2022/08/27 10:14:26;;;;;;;6.15;4.55;;;;;;;;;;5032082;28;20281;-70
2022/08/27 10:17:37;;;;;;;6.60;4.57;;;;;;;;;;5031903;28;20041;-70
2022/08/27 10:21:00;;;;;;;6.40;4.30;;;;;;;;;;5031744;28;20033;-70
2022/08/27 10:24:10;;;;;;;6.60;4.25;;;;;;;;;;5032061;28;20528;-70
2022/08/27 10:27:29;;;;;;;10.10;4.53;;;;;;;;;;4992036;28;20047;-70
2022/08/27 10:30:39;;;;;;;5.47;4.20;;;;;;;;;;4992072;28;20041;-70
2022/08/27 10:34:02;;;;;;;4.60;3.90;;;;;;;;;;4991255;28;20375;-70
2022/08/27 10:37:39;;;;;;;7.38;4.72;;;;;;;;;;4992170;28;20039;-70
2022/08/27 10:40:49;;;;;;;8.52;4.22;;;;;;;;;;4980387;28;20182;-70
2022/08/27 10:44:05;;;;;;;7.13;4.65;;;;;;;;;;4992349;28;20050;-71
2022/08/27 10:47:13;;;;;;;8.13;5.20;;;;;;;;;;4992232;28;20042;-71
2022/08/27 10:50:17;;;;;;;7.65;4.78;;;;;;;;;;4992068;28;20030;-70
2022/08/27 10:53:26;;;;;;;6.40;4.00;;;;;;;;;;4992021;28;20042;-73
2022/08/27 10:56:35;;;;;;;8.85;6.75;;;;;;;;;;4990591;28;20042;-70
2022/08/27 10:59:58;;;;;;;6.72;4.85;;;;;;;;;;4991531;28;20376;-69
2022/08/27 11:03:06;;;;;;;5.53;4.10;;;;;;;;;;4991867;28;20042;-70
2022/08/27 11:06:19;;;;;;;7.43;4.68;;;;;;;;;;4991562;28;20046;-70
2022/08/27 11:09:47;;;;;;;4.40;3.97;;;;;;;;;;4992118;28;20038;-69
2022/08/27 11:12:53;;;;;;;6.85;4.65;;;;;;;;;;4992126;28;20046;-69
2022/08/27 11:15:59;;;;;;;7.35;4.43;;;;;;;;;;4992066;28;20038;-70
2022/08/27 11:19:08;;;;;;;5.53;4.25;;;;;;;;;;4991840;28;20046;-70
2022/08/27 11:22:16;;;;;;;9.38;4.10;;;;;;;;;;4991631;28;20027;-71
2022/08/27 11:25:27;;;;;;;4.85;3.72;;;;;;;;;;5009753;28;20049;-70
2022/08/27 11:28:36;;;;;;;8.80;3.92;;;;;;;;;;5031050;28;20037;-70
2022/08/27 11:31:44;;;;;;;5.93;4.38;;;;;;;;;;5027990;28;20037;-70
2022/08/27 11:34:54;;;;;;;7.00;3.95;;;;;;;;;;5030561;28;20524;-70
2022/08/27 11:38:17;;;;;;;5.32;3.75;;;;;;;;;;5030672;28;20367;-70
2022/08/27 11:41:54;;;;;;;6.70;4.32;;;;;;;;;;5031054;28;20284;-70
2022/08/27 11:45:03;;;;;;;7.35;3.95;;;;;;;;;;5013725;28;20053;-70
2022/08/27 11:48:21;;;;;;;6.35;4.18;;;;;;;;;;5031084;28;20045;-70
2022/08/27 11:51:34;;;;;;;4.38;3.55;;;;;;;;;;5030385;28;20033;-70
2022/08/27 11:54:44;;;;;;;4.70;4.07;;;;;;;;;;5029618;28;20071;-70
2022/08/27 11:57:50;;;;;;;5.03;4.05;;;;;;;;;;5034184;28;20037;-70
2022/08/27 12:00:55;;;;;;;7.63;4.72;;;;;;;;;;5034631;28;20045;-70
2022/08/27 12:04:05;;;;;;;8.60;4.35;;;;;;;;;;5034610;28;20140;-69
2022/08/27 12:07:20;;;;;;;9.30;4.30;;;;;;;;;;5034246;28;20045;-69
2022/08/27 12:10:48;;;;;;;8.07;3.83;;;;;;;;;;5034264;28;20034;-70
2022/08/27 12:14:11;;;;;;;6.05;3.80;;;;;;;;;;5021880;28;20041;-70
2022/08/27 12:17:35;;;;;;;4.78;3.50;;;;;;;;;;5034466;28;20089;-69
2022/08/27 12:20:39;;;;;;;6.57;3.55;;;;;;;;;;5034331;28;20045;-70
2022/08/27 12:23:48;;;;;;;6.20;3.47;;;;;;;;;;5034282;28;20049;-69
2022/08/27 12:27:14;;;;;;;5.53;3.38;;;;;;;;;;5034701;28;20049;-70
2022/08/27 12:30:18;;;;;;;5.40;3.10;;;;;;;;;;5034045;28;20037;-70
2022/08/27 12:33:23;;;;;;;5.60;2.78;;;;;;;;;;5034201;28;20037;-69
2022/08/27 12:36:32;;;;;;;5.25;3.03;;;;;;;;;;5032439;28;20030;-68
2022/08/27 12:39:38;;;;;;;9.23;2.90;;;;;;;;;;5034082;28;20037;-66
2022/08/27 12:42:42;;;;;;;11.18;4.38;;;;;;;;;;5033137;28;20045;-67
2022/08/27 12:45:48;;;;;;;5.10;3.17;;;;;;;;;;5033910;28;20508;-67
2022/08/27 12:48:58;;;;;;;6.43;2.83;;;;;;;;;;5033884;28;20042;-67
2022/08/27 12:52:04;;;;;;;4.65;3.00;;;;;;;;;;5033658;28;20041;-67
2022/08/27 12:55:22;;;;;;;10.18;2.95;;;;;;;;;;5033380;28;20037;-66
2022/08/27 12:58:29;;;;;;;6.90;2.78;;;;;;;;;;5033729;28;20049;-66
2022/08/27 13:01:52;;;;;;;5.50;2.75;;;;;;;;;;5033553;28;20041;-68
2022/08/27 13:04:57;;;;;;;4.90;3.10;;;;;;;;;;5033360;28;20045;-68
2022/08/27 13:08:01;;;;;;;3.63;3.00;;;;;;;;;;5033086;28;20362;-69
2022/08/27 13:11:10;;;;;;;5.13;2.28;;;;;;;;;;5033656;28;20037;-67
2022/08/27 13:14:19;;;;;;;6.32;2.80;;;;;;;;;;5033159;28;20029;-67
2022/08/27 13:17:24;;;;;;;4.90;2.20;;;;;;;;;;5033585;28;20367;-66
2022/08/27 13:20:29;;;;;;;2.25;1.90;;;;;;;;;;5033517;28;20037;-68
2022/08/27 13:23:34;;;;;;;3.60;2.10;;;;;;;;;;5033236;28;20038;-68
2022/08/27 13:26:38;;;;;;;2.55;1.90;;;;;;;;;;5032801;28;20046;-68
2022/08/27 13:29:42;;;;;;;5.50;2.20;;;;;;;;;;5032949;28;20038;-68
2022/08/27 13:32:47;;;;;;;4.55;2.30;;;;;;;;;;5033007;28;20042;-68
2022/08/27 13:35:51;;;;;;;3.80;2.25;;;;;;;;;;5033135;28;20037;-67
2022/08/27 13:38:56;;;;;;;10.80;2.38;;;;;;;;;;5033042;28;20041;-67
2022/08/27 13:42:01;;;;;;;6.15;2.20;;;;;;;;;;5032734;28;20056;-69
2022/08/27 13:45:06;;;;;;;3.70;2.55;;;;;;;;;;5032646;28;20181;-69
2022/08/27 13:48:11;;;;;;;5.45;2.92;;;;;;;;;;5031541;28;20041;-69
2022/08/27 13:51:15;;;;;;;3.97;2.28;;;;;;;;;;5032502;28;20374;-69
2022/08/27 13:54:20;;;;;;;5.72;2.53;;;;;;;;;;5032567;28;20041;-69
2022/08/27 13:57:26;;;;;;;6.75;2.65;;;;;;;;;;5032569;28;20037;-69
2022/08/27 14:00:32;;;;;;;3.22;2.10;;;;;;;;;;5032408;28;20037;-69
2022/08/27 14:03:46;;;;;;;3.85;2.20;;;;;;;;;;5031761;28;20034;-70
2022/08/27 14:06:50;;;;;;;3.58;2.28;;;;;;;;;;5032266;28;20049;-69
2022/08/27 14:09:56;;;;;;;5.65;2.63;;;;;;;;;;5032299;28;20037;-69
2022/08/27 14:13:02;;;;;;;5.40;2.53;;;;;;;;;;5031979;28;20042;-69
2022/08/27 14:16:25;;;;;;;5.22;2.67;;;;;;;;;;5032314;28;20346;-69
2022/08/27 14:19:31;;;;;;;4.88;2.53;;;;;;;;;;5031243;28;20034;-69
2022/08/27 14:22:35;;;;;;;4.63;2.22;;;;;;;;;;5032007;28;20516;-69
2022/08/27 14:25:40;;;;;;;4.38;2.17;;;;;;;;;;5031342;28;20382;-68
2022/08/27 14:28:44;;;;;;;7.38;2.38;;;;;;;;;;5031950;28;20041;-68
2022/08/27 14:31:49;;;;;;;7.78;3.22;;;;;;;;;;5031703;28;20041;-68
2022/08/27 14:34:54;;;;;;;5.05;2.80;;;;;;;;;;5031583;28;20037;-69
2022/08/27 14:37:58;;;;;;;3.55;2.60;;;;;;;;;;5031628;28;20383;-69
2022/08/27 14:41:10;;;;;;;5.45;2.88;;;;;;;;;;5067551;28;20391;-69
2022/08/27 14:44:14;;;;;;;4.80;2.70;;;;;;;;;;5067755;28;20040;-68
2022/08/27 14:47:18;;;;;;;3.97;3.10;;;;;;;;;;5068101;28;20041;-69
2022/08/27 14:50:23;;;;;;;5.03;2.85;;;;;;;;;;5068064;28;20040;-69
2022/08/27 14:53:27;;;;;;;4.95;2.90;;;;;;;;;;5067795;28;20040;-69
2022/08/27 14:56:32;;;;;;;3.75;2.72;;;;;;;;;;5067732;28;20032;-68
2022/08/27 14:59:37;;;;;;;4.78;3.00;;;;;;;;;;5067466;28;20052;-69
2022/08/27 15:02:44;;;;;;;6.95;3.05;;;;;;;;;;5067964;28;20040;-69
2022/08/27 15:05:48;;;;;;;10.23;3.20;;;;;;;;;;5067640;28;20040;-69
2022/08/27 15:08:52;;;;;;;5.03;2.92;;;;;;;;;;5067723;28;20044;-69
2022/08/27 15:11:57;;;;;;;5.80;2.60;;;;;;;;;;5067563;28;20045;-69
2022/08/27 15:15:02;;;;;;;4.03;2.53;;;;;;;;;;5066381;28;20033;-69
2022/08/27 15:18:07;;;;;;;3.17;2.20;;;;;;;;;;5066733;28;20036;-69
2022/08/27 15:21:11;;;;;;;5.45;2.85;;;;;;;;;;5067488;28;20044;-69
2022/08/27 15:24:17;;;;;;;4.25;2.88;;;;;;;;;;5067237;28;20033;-69
2022/08/27 15:27:22;;;;;;;3.75;2.45;;;;;;;;;;5067353;28;20325;-69
2022/08/27 15:30:27;;;;;;;5.57;3.05;;;;;;;;;;5067149;28;20037;-70
2022/08/27 15:33:32;;;;;;;7.53;2.95;;;;;;;;;;5067134;28;20028;-70
2022/08/27 15:36:36;;;;;;;6.43;2.88;;;;;;;;;;5067314;28;20370;-69
2022/08/27 15:39:41;;;;;;;4.93;3.00;;;;;;;;;;5066694;28;20045;-70
2022/08/27 15:42:47;;;;;;;3.67;2.70;;;;;;;;;;5066838;28;20034;-69
2022/08/27 15:45:51;;;;;;;4.38;3.40;;;;;;;;;;5066892;28;20036;-69
2022/08/27 15:48:55;;;;;;;5.32;2.95;;;;;;;;;;5066655;28;20036;-69
2022/08/27 15:51:59;;;;;;;4.07;2.85;;;;;;;;;;5056504;28;20040;-69
2022/08/27 15:55:04;;;;;;;6.50;3.50;;;;;;;;;;5053352;28;20037;-70
2022/08/27 15:58:09;;;;;;;4.13;2.85;;;;;;;;;;5053834;28;20041;-69
2022/08/27 16:01:16;;;;;;;4.25;2.85;;;;;;;;;;5053199;28;20053;-70
2022/08/27 16:04:21;;;;;;;4.05;2.90;;;;;;;;;;5053476;28;20036;-70
2022/08/27 16:07:26;;;;;;;7.82;3.13;;;;;;;;;;5053497;28;20036;-70
2022/08/27 16:10:30;;;;;;;9.00;4.10;;;;;;;;;;5052387;28;20457;-69
2022/08/27 16:13:36;;;;;;;4.15;2.90;;;;;;;;;;5052829;28;20041;-69
2022/08/27 16:16:43;;;;;;;3.92;2.70;;;;;;;;;;5053025;28;20033;-69
2022/08/27 16:19:48;;;;;;;8.25;2.75;;;;;;;;;;5052913;28;20049;-69
2022/08/27 16:22:53;;;;;;;6.10;2.83;;;;;;;;;;5052678;28;20041;-69
2022/08/27 16:25:57;;;;;;;6.95;2.60;;;;;;;;;;5053010;28;20045;-70
2022/08/27 16:29:02;;;;;;;4.72;2.40;;;;;;;;;;5052509;28;20033;-69
2022/08/27 16:32:08;;;;;;;7.13;2.88;;;;;;;;;;5052614;28;20049;-70
2022/08/27 16:35:14;;;;;;;4.32;2.25;;;;;;;;;;5052618;28;20045;-70
2022/08/27 16:38:18;;;;;;;5.65;2.60;;;;;;;;;;5052540;28;20036;-69
2022/08/27 16:41:22;;;;;;;2.90;2.42;;;;;;;;;;5052245;28;20057;-70
2022/08/27 16:44:27;;;;;;;3.92;2.20;;;;;;;;;;5052524;28;20033;-69
2022/08/27 16:47:31;;;;;;;6.15;2.42;;;;;;;;;;5052523;28;20037;-69
2022/08/27 16:50:36;;;;;;;6.07;2.30;;;;;;;;;;5051498;28;20033;-68
2022/08/27 16:53:41;;;;;;;6.28;2.25;;;;;;;;;;5052411;28;20045;-68
2022/08/27 16:56:45;;;;;;;8.82;2.70;;;;;;;;;;5052102;28;20029;-68
2022/08/27 16:59:49;;;;;;;4.18;2.08;;;;;;;;;;5051992;28;20045;-68
2022/08/27 17:02:54;;;;;;;8.23;2.67;;;;;;;;;;5050843;28;20276;-68
2022/08/27 17:05:58;;;;;;;6.05;2.05;;;;;;;;;;5052148;28;20480;-68
2022/08/27 17:09:04;;;;;;;3.90;2.35;;;;;;;;;;5052161;28;20377;-68
2022/08/27 17:12:10;;;;;;;5.40;2.50;;;;;;;;;;5051473;28;20036;-69
2022/08/27 17:15:15;;;;;;;4.85;2.10;;;;;;;;;;5051782;28;20377;-69
2022/08/27 17:18:26;;;;;;;5.60;2.50;;;;;;;;;;5051600;28;20389;-70
2022/08/27 17:21:31;;;;;;;4.93;3.55;;;;;;;;;;5051219;28;20477;-69
2022/08/27 17:24:36;;;;;;;7.50;3.00;;;;;;;;;;5051515;28;20037;-69
2022/08/27 17:27:40;;;;;;;6.63;2.20;;;;;;;;;;5051741;28;20037;-69
2022/08/27 17:30:44;;;;;;;6.05;2.17;;;;;;;;;;5051707;28;20037;-70
2022/08/27 17:33:51;;;;;;;8.10;3.35;;;;;;;;;;5051625;28;20037;-69
2022/08/27 17:36:55;;;;;;;8.82;3.10;;;;;;;;;;5050943;28;20053;-69
2022/08/27 17:40:00;;;;;;;12.70;3.55;;;;;;;;;;5050976;28;20056;-70
2022/08/27 17:43:04;;;;;;;4.80;2.67;;;;;;;;;;5050806;28;20033;-69
2022/08/27 17:46:09;;;;;;;7.18;3.08;;;;;;;;;;5051424;28;20041;-69
2022/08/27 17:49:15;;;;;;;8.52;2.80;;;;;;;;;;5051275;28;20041;-69
2022/08/27 17:52:19;;;;;;;7.63;2.70;;;;;;;;;;5051282;28;20049;-69
2022/08/27 17:55:23;;;;;;;8.43;3.20;;;;;;;;;;5051276;28;20048;-70
2022/08/27 17:58:28;;;;;;;6.47;3.10;;;;;;;;;;5050823;28;20033;-70
2022/08/27 18:01:32;;;;;;;6.75;3.75;;;;;;;;;;5050725;28;20053;-69
2022/08/27 18:04:36;;;;;;;9.02;3.25;;;;;;;;;;5050665;28;20041;-69
2022/08/27 18:07:41;;;;;;;12.13;3.50;;;;;;;;;;5050990;28;20036;-69
2022/08/27 18:10:46;;;;;;;12.40;4.60;;;;;;;;;;5050675;28;20037;-69
2022/08/27 18:13:53;;;;;;;17.15;6.85;;;;;;;;;;5050351;28;20033;-69
2022/08/27 18:16:58;;;;;;;27.77;14.75;;;;;;;;;;5050448;28;20069;-69
2022/08/27 18:20:04;;;;;;;25.20;11.38;;;;;;;;;;5050687;28;20056;-69
2022/08/27 18:23:08;;;;;;;12.98;6.75;;;;;;;;;;5050788;28;20060;-69
2022/08/27 18:26:14;;;;;;;9.77;5.38;;;;;;;;;;5050796;28;20037;-69
2022/08/27 18:29:18;;;;;;;8.75;4.68;;;;;;;;;;5050621;28;20040;-69
2022/08/27 18:32:23;;;;;;;18.55;6.75;;;;;;;;;;5050532;28;20465;-69
2022/08/27 18:35:29;;;;;;;8.13;4.13;;;;;;;;;;5049461;28;20041;-69
2022/08/27 18:38:34;;;;;;;8.75;4.28;;;;;;;;;;5050436;28;20025;-69